sensor_id;sensor_type;location;lat;lon;timestamp;P1;durP1;ratioP1;P2;durP2;ratioP2
58992;SDS011;44782;0.000;0.000;2022-08-16T00:02:15;3.22;;;3.00;;
58992;SDS011;44782;0.000;0.000;2022-08-16T00:04:30;3.20;;;3.00;;
58992;SDS011;44782;0.000;0.000;2022-08-16T00:06:46;2.92;;;2.72;;
58992;SDS011;44782;0.000;0.000;2022-08-16T00:09:03;3.15;;;2.95;;
58992;SDS011;44782;0.000;0.000;2022-08-16T00:11:19;3.33;;;3.13;;
58992;SDS011;44782;0.000;0.000;2022-08-16T00:13:35;3.03;;;2.83;;
58992;SDS011;44782;0.000;0.000;2022-08-16T00:15:51;3.15;;;2.95;;
58992;SDS011;44782;0.000;0.000;2022-08-16T00:18:07;3.15;;;2.88;;
58992;SDS011;44782;0.000;0.000;2022-08-16T00:20:26;3.25;;;3.05;;
58992;SDS011;44782;0.000;0.000;2022-08-16T00:22:42;3.50;;;3.20;;
58992;SDS011;44782;0.000;0.000;2022-08-16T00:24:58;3.33;;;3.13;;
58992;SDS011;44782;0.000;0.000;2022-08-16T00:27:13;3.33;;;3.13;;
58992;SDS011;44782;0.000;0.000;2022-08-16T00:29:30;3.65;;;3.35;;
58992;SDS011;44782;0.000;0.000;2022-08-16T00:31:48;3.10;;;2.90;;
58992;SDS011;44782;0.000;0.000;2022-08-16T00:34:05;3.47;;;3.20;;
58992;SDS011;44782;0.000;0.000;2022-08-16T00:36:20;3.58;;;3.30;;
58992;SDS011;44782;0.000;0.000;2022-08-16T00:38:36;3.10;;;2.90;;
58992;SDS011;44782;0.000;0.000;2022-08-16T00:40:52;3.70;;;3.40;;
58992;SDS011;44782;0.000;0.000;2022-08-16T00:43:10;3.35;;;3.15;;
58992;SDS011;44782;0.000;0.000;2022-08-16T00:45:40;3.65;;;3.35;;
58992;SDS011;44782;0.000;0.000;2022-08-16T00:47:59;3.47;;;3.28;;
58992;SDS011;44782;0.000;0.000;2022-08-16T00:50:20;3.33;;;3.13;;
58992;SDS011;44782;0.000;0.000;2022-08-16T00:52:41;3.28;;;3.08;;
58992;SDS011;44782;0.000;0.000;2022-08-16T00:54:57;3.70;;;3.40;;
58992;SDS011;44782;0.000;0.000;2022-08-16T00:57:13;3.15;;;2.95;;
58992;SDS011;44782;0.000;0.000;2022-08-16T00:59:31;3.40;;;3.20;;
58992;SDS011;44782;0.000;0.000;2022-08-16T01:01:49;3.28;;;3.08;;
58992;SDS011;44782;0.000;0.000;2022-08-16T01:04:06;3.22;;;3.03;;
58992;SDS011;44782;0.000;0.000;2022-08-16T01:06:22;3.33;;;3.13;;
58992;SDS011;44782;0.000;0.000;2022-08-16T01:08:39;3.63;;;3.42;;
58992;SDS011;44782;0.000;0.000;2022-08-16T01:10:56;3.35;;;3.15;;
58992;SDS011;44782;0.000;0.000;2022-08-16T01:13:13;3.70;;;3.40;;
58992;SDS011;44782;0.000;0.000;2022-08-16T01:15:31;3.40;;;3.20;;
58992;SDS011;44782;0.000;0.000;2022-08-16T01:17:49;3.55;;;3.30;;
58992;SDS011;44782;0.000;0.000;2022-08-16T01:20:07;3.63;;;3.00;;
58992;SDS011;44782;0.000;0.000;2022-08-16T01:22:35;3.67;;;3.40;;
58992;SDS011;44782;0.000;0.000;2022-08-16T01:25:06;3.47;;;3.15;;
58992;SDS011;44782;0.000;0.000;2022-08-16T01:30:03;3.50;;;3.20;;
58992;SDS011;44782;0.000;0.000;2022-08-16T01:32:22;3.35;;;3.15;;
58992;SDS011;44782;0.000;0.000;2022-08-16T01:34:38;3.30;;;3.10;;
58992;SDS011;44782;0.000;0.000;2022-08-16T01:36:57;3.30;;;3.10;;
58992;SDS011;44782;0.000;0.000;2022-08-16T01:39:16;3.33;;;3.13;;
58992;SDS011;44782;0.000;0.000;2022-08-16T01:41:31;3.35;;;3.15;;
58992;SDS011;44782;0.000;0.000;2022-08-16T01:43:47;3.70;;;3.38;;
58992;SDS011;44782;0.000;0.000;2022-08-16T01:46:05;3.78;;;3.47;;
58992;SDS011;44782;0.000;0.000;2022-08-16T01:48:23;3.72;;;3.42;;
58992;SDS011;44782;0.000;0.000;2022-08-16T01:50:42;3.80;;;3.50;;
58992;SDS011;44782;0.000;0.000;2022-08-16T01:52:58;3.45;;;3.17;;
58992;SDS011;44782;0.000;0.000;2022-08-16T01:55:16;3.88;;;3.58;;
58992;SDS011;44782;0.000;0.000;2022-08-16T01:57:32;4.55;;;3.28;;
58992;SDS011;44782;0.000;0.000;2022-08-16T01:59:48;3.15;;;2.95;;
58992;SDS011;44782;0.000;0.000;2022-08-16T02:02:04;3.80;;;3.50;;
58992;SDS011;44782;0.000;0.000;2022-08-16T02:04:21;3.92;;;3.63;;
58992;SDS011;44782;0.000;0.000;2022-08-16T02:06:38;3.65;;;3.45;;
58992;SDS011;44782;0.000;0.000;2022-08-16T02:08:55;3.40;;;3.20;;
58992;SDS011;44782;0.000;0.000;2022-08-16T02:11:12;3.42;;;3.17;;
58992;SDS011;44782;0.000;0.000;2022-08-16T02:13:28;3.60;;;3.40;;
58992;SDS011;44782;0.000;0.000;2022-08-16T02:15:44;4.07;;;3.78;;
58992;SDS011;44782;0.000;0.000;2022-08-16T02:18:01;4.30;;;4.00;;
58992;SDS011;44782;0.000;0.000;2022-08-16T02:20:17;4.13;;;3.83;;
58992;SDS011;44782;0.000;0.000;2022-08-16T02:22:34;3.90;;;3.60;;
58992;SDS011;44782;0.000;0.000;2022-08-16T02:24:50;3.35;;;3.15;;
58992;SDS011;44782;0.000;0.000;2022-08-16T02:27:06;3.75;;;3.45;;
58992;SDS011;44782;0.000;0.000;2022-08-16T02:29:21;3.95;;;3.65;;
58992;SDS011;44782;0.000;0.000;2022-08-16T02:31:37;3.80;;;3.50;;
58992;SDS011;44782;0.000;0.000;2022-08-16T02:33:53;3.50;;;3.20;;
58992;SDS011;44782;0.000;0.000;2022-08-16T02:36:09;3.78;;;3.47;;
58992;SDS011;44782;0.000;0.000;2022-08-16T02:38:27;3.90;;;3.60;;
58992;SDS011;44782;0.000;0.000;2022-08-16T02:40:43;3.60;;;3.40;;
58992;SDS011;44782;0.000;0.000;2022-08-16T02:42:59;3.90;;;3.60;;
58992;SDS011;44782;0.000;0.000;2022-08-16T02:45:15;3.75;;;3.55;;
58992;SDS011;44782;0.000;0.000;2022-08-16T02:47:32;4.18;;;3.80;;
58992;SDS011;44782;0.000;0.000;2022-08-16T02:49:48;3.53;;;3.33;;
58992;SDS011;44782;0.000;0.000;2022-08-16T02:52:04;3.58;;;3.28;;
58992;SDS011;44782;0.000;0.000;2022-08-16T02:54:21;3.83;;;3.53;;
58992;SDS011;44782;0.000;0.000;2022-08-16T02:56:37;3.90;;;3.60;;
58992;SDS011;44782;0.000;0.000;2022-08-16T02:58:52;3.72;;;3.47;;
58992;SDS011;44782;0.000;0.000;2022-08-16T03:01:08;3.72;;;3.40;;
58992;SDS011;44782;0.000;0.000;2022-08-16T03:03:25;3.78;;;3.47;;
58992;SDS011;44782;0.000;0.000;2022-08-16T03:05:41;3.88;;;3.60;;
58992;SDS011;44782;0.000;0.000;2022-08-16T03:07:56;4.05;;;3.72;;
58992;SDS011;44782;0.000;0.000;2022-08-16T03:10:12;3.80;;;3.55;;
58992;SDS011;44782;0.000;0.000;2022-08-16T03:12:28;4.13;;;3.83;;
58992;SDS011;44782;0.000;0.000;2022-08-16T03:14:44;4.35;;;4.05;;
58992;SDS011;44782;0.000;0.000;2022-08-16T03:17:00;3.63;;;3.38;;
58992;SDS011;44782;0.000;0.000;2022-08-16T03:19:16;3.88;;;3.60;;
58992;SDS011;44782;0.000;0.000;2022-08-16T03:21:31;3.92;;;3.65;;
58992;SDS011;44782;0.000;0.000;2022-08-16T03:23:47;3.97;;;3.67;;
58992;SDS011;44782;0.000;0.000;2022-08-16T03:26:03;3.95;;;3.60;;
58992;SDS011;44782;0.000;0.000;2022-08-16T03:28:18;4.15;;;3.85;;
58992;SDS011;44782;0.000;0.000;2022-08-16T03:30:34;3.83;;;3.53;;
58992;SDS011;44782;0.000;0.000;2022-08-16T03:32:51;3.67;;;3.42;;
58992;SDS011;44782;0.000;0.000;2022-08-16T03:35:07;4.00;;;3.70;;
58992;SDS011;44782;0.000;0.000;2022-08-16T03:37:23;3.53;;;3.33;;
58992;SDS011;44782;0.000;0.000;2022-08-16T03:39:38;4.00;;;3.70;;
58992;SDS011;44782;0.000;0.000;2022-08-16T03:41:54;3.92;;;3.63;;
58992;SDS011;44782;0.000;0.000;2022-08-16T03:44:10;4.00;;;3.70;;
58992;SDS011;44782;0.000;0.000;2022-08-16T03:46:25;3.63;;;3.42;;
58992;SDS011;44782;0.000;0.000;2022-08-16T03:48:42;3.72;;;3.40;;
58992;SDS011;44782;0.000;0.000;2022-08-16T03:50:59;3.70;;;3.40;;
58992;SDS011;44782;0.000;0.000;2022-08-16T03:53:15;4.00;;;3.70;;
58992;SDS011;44782;0.000;0.000;2022-08-16T03:55:31;4.28;;;3.92;;
58992;SDS011;44782;0.000;0.000;2022-08-16T03:57:47;4.03;;;3.80;;
58992;SDS011;44782;0.000;0.000;2022-08-16T04:00:12;4.07;;;3.75;;
58992;SDS011;44782;0.000;0.000;2022-08-16T04:02:30;4.20;;;3.90;;
58992;SDS011;44782;0.000;0.000;2022-08-16T04:04:46;4.03;;;3.72;;
58992;SDS011;44782;0.000;0.000;2022-08-16T04:07:04;3.85;;;3.65;;
58992;SDS011;44782;0.000;0.000;2022-08-16T04:09:21;3.92;;;3.72;;
58992;SDS011;44782;0.000;0.000;2022-08-16T04:11:36;3.97;;;3.70;;
58992;SDS011;44782;0.000;0.000;2022-08-16T04:13:52;4.38;;;4.07;;
58992;SDS011;44782;0.000;0.000;2022-08-16T04:16:08;3.75;;;3.47;;
58992;SDS011;44782;0.000;0.000;2022-08-16T04:18:26;3.80;;;3.50;;
58992;SDS011;44782;0.000;0.000;2022-08-16T04:20:42;3.78;;;3.50;;
58992;SDS011;44782;0.000;0.000;2022-08-16T04:22:58;4.00;;;3.70;;
58992;SDS011;44782;0.000;0.000;2022-08-16T04:25:14;3.95;;;3.70;;
58992;SDS011;44782;0.000;0.000;2022-08-16T04:27:30;4.15;;;3.85;;
58992;SDS011;44782;0.000;0.000;2022-08-16T04:29:46;3.90;;;3.70;;
58992;SDS011;44782;0.000;0.000;2022-08-16T04:32:01;4.20;;;3.90;;
58992;SDS011;44782;0.000;0.000;2022-08-16T04:34:17;3.92;;;3.60;;
58992;SDS011;44782;0.000;0.000;2022-08-16T04:36:33;3.88;;;3.67;;
58992;SDS011;44782;0.000;0.000;2022-08-16T04:38:49;4.00;;;3.70;;
58992;SDS011;44782;0.000;0.000;2022-08-16T04:41:05;4.18;;;3.88;;
58992;SDS011;44782;0.000;0.000;2022-08-16T04:43:20;4.05;;;3.75;;
58992;SDS011;44782;0.000;0.000;2022-08-16T04:45:36;4.03;;;3.80;;
58992;SDS011;44782;0.000;0.000;2022-08-16T04:47:52;4.10;;;3.80;;
58992;SDS011;44782;0.000;0.000;2022-08-16T04:50:09;3.92;;;3.63;;
58992;SDS011;44782;0.000;0.000;2022-08-16T04:52:28;3.90;;;3.70;;
58992;SDS011;44782;0.000;0.000;2022-08-16T04:54:44;3.92;;;3.72;;
58992;SDS011;44782;0.000;0.000;2022-08-16T04:57:00;4.25;;;3.95;;
58992;SDS011;44782;0.000;0.000;2022-08-16T04:59:15;3.92;;;3.70;;
58992;SDS011;44782;0.000;0.000;2022-08-16T05:01:31;3.78;;;3.58;;
58992;SDS011;44782;0.000;0.000;2022-08-16T05:03:46;4.03;;;3.72;;
58992;SDS011;44782;0.000;0.000;2022-08-16T05:06:02;4.63;;;4.32;;
58992;SDS011;44782;0.000;0.000;2022-08-16T05:08:18;4.78;;;4.47;;
58992;SDS011;44782;0.000;0.000;2022-08-16T05:10:34;5.65;;;5.25;;
58992;SDS011;44782;0.000;0.000;2022-08-16T05:12:50;5.68;;;5.28;;
58992;SDS011;44782;0.000;0.000;2022-08-16T05:15:06;5.28;;;4.88;;
58992;SDS011;44782;0.000;0.000;2022-08-16T05:17:23;5.82;;;5.38;;
58992;SDS011;44782;0.000;0.000;2022-08-16T05:19:39;5.95;;;5.45;;
58992;SDS011;44782;0.000;0.000;2022-08-16T05:21:55;5.85;;;5.25;;
58992;SDS011;44782;0.000;0.000;2022-08-16T05:24:10;5.80;;;5.40;;
58992;SDS011;44782;0.000;0.000;2022-08-16T05:26:27;5.82;;;5.40;;
58992;SDS011;44782;0.000;0.000;2022-08-16T05:28:45;6.13;;;5.63;;
58992;SDS011;44782;0.000;0.000;2022-08-16T05:31:01;5.82;;;5.38;;
58992;SDS011;44782;0.000;0.000;2022-08-16T05:33:17;5.95;;;5.45;;
58992;SDS011;44782;0.000;0.000;2022-08-16T05:35:35;5.55;;;5.10;;
58992;SDS011;44782;0.000;0.000;2022-08-16T05:37:50;6.57;;;5.65;;
58992;SDS011;44782;0.000;0.000;2022-08-16T05:40:07;5.70;;;5.20;;
58992;SDS011;44782;0.000;0.000;2022-08-16T05:42:23;5.45;;;5.05;;
58992;SDS011;44782;0.000;0.000;2022-08-16T05:44:39;5.53;;;5.13;;
58992;SDS011;44782;0.000;0.000;2022-08-16T05:46:56;5.57;;;5.18;;
58992;SDS011;44782;0.000;0.000;2022-08-16T05:49:14;5.95;;;5.45;;
58992;SDS011;44782;0.000;0.000;2022-08-16T05:51:30;5.35;;;5.00;;
58992;SDS011;44782;0.000;0.000;2022-08-16T05:53:46;5.25;;;4.93;;
58992;SDS011;44782;0.000;0.000;2022-08-16T05:56:02;5.57;;;5.15;;
58992;SDS011;44782;0.000;0.000;2022-08-16T05:58:18;5.90;;;4.90;;
58992;SDS011;44782;0.000;0.000;2022-08-16T06:00:33;5.30;;;4.90;;
58992;SDS011;44782;0.000;0.000;2022-08-16T06:02:49;6.20;;;5.70;;
58992;SDS011;44782;0.000;0.000;2022-08-16T06:05:06;5.72;;;5.20;;
58992;SDS011;44782;0.000;0.000;2022-08-16T06:07:22;6.00;;;5.50;;
58992;SDS011;44782;0.000;0.000;2022-08-16T06:09:37;5.25;;;4.90;;
58992;SDS011;44782;0.000;0.000;2022-08-16T06:11:53;5.80;;;5.38;;
58992;SDS011;44782;0.000;0.000;2022-08-16T06:14:09;5.80;;;5.10;;
58992;SDS011;44782;0.000;0.000;2022-08-16T06:16:25;5.85;;;5.38;;
58992;SDS011;44782;0.000;0.000;2022-08-16T06:18:41;5.57;;;5.13;;
58992;SDS011;44782;0.000;0.000;2022-08-16T06:20:59;6.28;;;5.55;;
58992;SDS011;44782;0.000;0.000;2022-08-16T06:23:14;8.23;;;6.32;;
58992;SDS011;44782;0.000;0.000;2022-08-16T06:25:30;7.97;;;6.57;;
58992;SDS011;44782;0.000;0.000;2022-08-16T06:27:47;8.68;;;7.78;;
58992;SDS011;44782;0.000;0.000;2022-08-16T06:30:03;8.90;;;7.90;;
58992;SDS011;44782;0.000;0.000;2022-08-16T06:32:23;9.63;;;8.13;;
58992;SDS011;44782;0.000;0.000;2022-08-16T06:34:39;9.13;;;8.23;;
58992;SDS011;44782;0.000;0.000;2022-08-16T06:36:55;10.02;;;8.02;;
58992;SDS011;44782;0.000;0.000;2022-08-16T06:39:10;9.73;;;7.68;;
58992;SDS011;44782;0.000;0.000;2022-08-16T06:41:26;8.13;;;7.32;;
58992;SDS011;44782;0.000;0.000;2022-08-16T06:43:42;8.15;;;7.40;;
58992;SDS011;44782;0.000;0.000;2022-08-16T06:45:57;8.38;;;7.57;;
58992;SDS011;44782;0.000;0.000;2022-08-16T06:48:14;7.88;;;7.10;;
58992;SDS011;44782;0.000;0.000;2022-08-16T06:50:29;7.45;;;6.75;;
58992;SDS011;44782;0.000;0.000;2022-08-16T06:52:46;8.13;;;7.32;;
58992;SDS011;44782;0.000;0.000;2022-08-16T06:55:05;7.53;;;6.82;;
58992;SDS011;44782;0.000;0.000;2022-08-16T06:57:22;7.65;;;6.95;;
58992;SDS011;44782;0.000;0.000;2022-08-16T06:59:38;7.97;;;7.38;;
58992;SDS011;44782;0.000;0.000;2022-08-16T07:01:54;7.80;;;7.20;;
58992;SDS011;44782;0.000;0.000;2022-08-16T07:04:10;8.50;;;7.72;;
58992;SDS011;44782;0.000;0.000;2022-08-16T07:06:25;7.93;;;7.22;;
58992;SDS011;44782;0.000;0.000;2022-08-16T07:08:41;8.00;;;7.30;;
58992;SDS011;44782;0.000;0.000;2022-08-16T07:10:57;8.00;;;7.40;;
58992;SDS011;44782;0.000;0.000;2022-08-16T07:13:13;7.97;;;7.25;;
58992;SDS011;44782;0.000;0.000;2022-08-16T07:15:28;7.75;;;7.15;;
58992;SDS011;44782;0.000;0.000;2022-08-16T07:17:45;7.65;;;7.03;;
58992;SDS011;44782;0.000;0.000;2022-08-16T07:25:55;6.97;;;6.43;;
58992;SDS011;44782;0.000;0.000;2022-08-16T07:28:12;7.43;;;6.70;;
58992;SDS011;44782;0.000;0.000;2022-08-16T07:30:30;7.20;;;6.60;;
58992;SDS011;44782;0.000;0.000;2022-08-16T07:32:46;7.03;;;6.45;;
58992;SDS011;44782;0.000;0.000;2022-08-16T07:35:04;7.30;;;6.70;;
58992;SDS011;44782;0.000;0.000;2022-08-16T07:37:20;7.32;;;6.63;;
58992;SDS011;44782;0.000;0.000;2022-08-16T07:39:36;7.10;;;6.50;;
58992;SDS011;44782;0.000;0.000;2022-08-16T07:41:52;6.78;;;6.28;;
58992;SDS011;44782;0.000;0.000;2022-08-16T07:44:08;6.68;;;6.18;;
58992;SDS011;44782;0.000;0.000;2022-08-16T07:46:24;6.45;;;5.95;;
58992;SDS011;44782;0.000;0.000;2022-08-16T07:48:40;7.28;;;6.72;;
58992;SDS011;44782;0.000;0.000;2022-08-16T07:50:56;7.20;;;6.70;;
58992;SDS011;44782;0.000;0.000;2022-08-16T07:53:12;6.38;;;5.90;;
58992;SDS011;44782;0.000;0.000;2022-08-16T07:55:28;6.90;;;6.40;;
58992;SDS011;44782;0.000;0.000;2022-08-16T07:57:44;6.45;;;5.95;;
58992;SDS011;44782;0.000;0.000;2022-08-16T08:00:00;6.53;;;5.85;;
58992;SDS011;44782;0.000;0.000;2022-08-16T08:02:16;6.05;;;5.55;;
58992;SDS011;44782;0.000;0.000;2022-08-16T08:04:32;6.40;;;5.90;;
58992;SDS011;44782;0.000;0.000;2022-08-16T08:06:48;6.25;;;5.78;;
58992;SDS011;44782;0.000;0.000;2022-08-16T08:09:03;6.28;;;5.85;;
58992;SDS011;44782;0.000;0.000;2022-08-16T08:11:20;6.18;;;5.68;;
58992;SDS011;44782;0.000;0.000;2022-08-16T08:13:36;6.10;;;5.70;;
58992;SDS011;44782;0.000;0.000;2022-08-16T08:15:52;6.00;;;5.55;;
58992;SDS011;44782;0.000;0.000;2022-08-16T08:18:07;6.07;;;5.57;;
58992;SDS011;44782;0.000;0.000;2022-08-16T08:20:23;6.03;;;5.63;;
58992;SDS011;44782;0.000;0.000;2022-08-16T08:22:46;5.85;;;5.45;;
58992;SDS011;44782;0.000;0.000;2022-08-16T08:25:02;5.97;;;5.57;;
58992;SDS011;44782;0.000;0.000;2022-08-16T08:27:18;5.95;;;5.55;;
58992;SDS011;44782;0.000;0.000;2022-08-16T08:29:34;5.82;;;5.43;;
58992;SDS011;44782;0.000;0.000;2022-08-16T08:31:51;5.80;;;5.40;;
58992;SDS011;44782;0.000;0.000;2022-08-16T08:34:07;5.75;;;5.35;;
58992;SDS011;44782;0.000;0.000;2022-08-16T08:36:24;5.90;;;5.50;;
58992;SDS011;44782;0.000;0.000;2022-08-16T08:38:42;5.80;;;5.40;;
58992;SDS011;44782;0.000;0.000;2022-08-16T08:40:58;5.95;;;5.55;;
58992;SDS011;44782;0.000;0.000;2022-08-16T08:43:13;5.97;;;5.57;;
58992;SDS011;44782;0.000;0.000;2022-08-16T08:45:31;6.00;;;5.60;;
58992;SDS011;44782;0.000;0.000;2022-08-16T08:47:46;5.85;;;5.38;;
58992;SDS011;44782;0.000;0.000;2022-08-16T08:50:03;6.28;;;5.78;;
58992;SDS011;44782;0.000;0.000;2022-08-16T08:52:19;5.93;;;5.43;;
58992;SDS011;44782;0.000;0.000;2022-08-16T08:54:35;6.30;;;5.70;;
58992;SDS011;44782;0.000;0.000;2022-08-16T08:56:51;5.90;;;5.40;;
58992;SDS011;44782;0.000;0.000;2022-08-16T08:59:08;6.22;;;5.72;;
58992;SDS011;44782;0.000;0.000;2022-08-16T09:01:25;6.40;;;6.00;;
58992;SDS011;44782;0.000;0.000;2022-08-16T09:03:43;6.32;;;5.72;;
58992;SDS011;44782;0.000;0.000;2022-08-16T09:05:59;6.25;;;5.70;;
58992;SDS011;44782;0.000;0.000;2022-08-16T09:08:15;6.65;;;6.15;;
58992;SDS011;44782;0.000;0.000;2022-08-16T09:10:31;6.18;;;5.68;;
58992;SDS011;44782;0.000;0.000;2022-08-16T09:12:47;5.90;;;5.38;;
58992;SDS011;44782;0.000;0.000;2022-08-16T09:15:04;5.82;;;5.32;;
58992;SDS011;44782;0.000;0.000;2022-08-16T09:17:21;5.53;;;5.13;;
58992;SDS011;44782;0.000;0.000;2022-08-16T09:19:38;5.97;;;5.47;;
58992;SDS011;44782;0.000;0.000;2022-08-16T09:21:54;6.45;;;5.85;;
58992;SDS011;44782;0.000;0.000;2022-08-16T09:24:10;6.30;;;5.80;;
58992;SDS011;44782;0.000;0.000;2022-08-16T09:26:25;5.93;;;5.50;;
58992;SDS011;44782;0.000;0.000;2022-08-16T09:28:41;6.10;;;5.60;;
58992;SDS011;44782;0.000;0.000;2022-08-16T09:30:58;6.28;;;5.72;;
58992;SDS011;44782;0.000;0.000;2022-08-16T09:33:14;6.15;;;5.57;;
58992;SDS011;44782;0.000;0.000;2022-08-16T09:35:34;5.68;;;5.13;;
58992;SDS011;44782;0.000;0.000;2022-08-16T09:37:51;6.20;;;5.65;;
58992;SDS011;44782;0.000;0.000;2022-08-16T09:40:07;5.82;;;5.35;;
58992;SDS011;44782;0.000;0.000;2022-08-16T09:42:23;6.35;;;5.75;;
58992;SDS011;44782;0.000;0.000;2022-08-16T09:44:40;6.90;;;5.70;;
58992;SDS011;44782;0.000;0.000;2022-08-16T09:46:56;6.25;;;5.70;;
58992;SDS011;44782;0.000;0.000;2022-08-16T09:49:12;5.97;;;5.47;;
58992;SDS011;44782;0.000;0.000;2022-08-16T09:51:28;5.80;;;5.28;;
58992;SDS011;44782;0.000;0.000;2022-08-16T09:53:44;6.20;;;5.60;;
58992;SDS011;44782;0.000;0.000;2022-08-16T09:56:01;7.47;;;5.38;;
58992;SDS011;44782;0.000;0.000;2022-08-16T09:58:23;5.63;;;5.13;;
58992;SDS011;44782;0.000;0.000;2022-08-16T10:00:39;5.95;;;5.45;;
58992;SDS011;44782;0.000;0.000;2022-08-16T10:02:55;6.75;;;5.45;;
58992;SDS011;44782;0.000;0.000;2022-08-16T10:05:12;5.57;;;5.18;;
58992;SDS011;44782;0.000;0.000;2022-08-16T10:07:28;5.72;;;5.22;;
58992;SDS011;44782;0.000;0.000;2022-08-16T10:09:45;5.47;;;4.97;;
58992;SDS011;44782;0.000;0.000;2022-08-16T10:12:01;5.22;;;4.82;;
58992;SDS011;44782;0.000;0.000;2022-08-16T10:14:35;5.65;;;5.20;;
58992;SDS011;44782;0.000;0.000;2022-08-16T10:16:50;6.20;;;5.60;;
58992;SDS011;44782;0.000;0.000;2022-08-16T10:19:07;7.18;;;4.95;;
58992;SDS011;44782;0.000;0.000;2022-08-16T10:21:23;5.20;;;4.80;;
58992;SDS011;44782;0.000;0.000;2022-08-16T10:23:39;5.38;;;4.90;;
58992;SDS011;44782;0.000;0.000;2022-08-16T10:25:55;5.55;;;5.15;;
58992;SDS011;44782;0.000;0.000;2022-08-16T10:28:11;5.30;;;4.80;;
58992;SDS011;44782;0.000;0.000;2022-08-16T10:30:30;5.85;;;4.63;;
58992;SDS011;44782;0.000;0.000;2022-08-16T10:32:46;5.13;;;4.65;;
58992;SDS011;44782;0.000;0.000;2022-08-16T10:35:02;5.18;;;4.78;;
58992;SDS011;44782;0.000;0.000;2022-08-16T10:37:17;4.88;;;4.47;;
58992;SDS011;44782;0.000;0.000;2022-08-16T10:39:33;5.35;;;4.88;;
58992;SDS011;44782;0.000;0.000;2022-08-16T10:41:49;5.10;;;4.32;;
58992;SDS011;44782;0.000;0.000;2022-08-16T10:44:05;6.43;;;4.80;;
58992;SDS011;44782;0.000;0.000;2022-08-16T10:46:21;5.50;;;4.47;;
58992;SDS011;44782;0.000;0.000;2022-08-16T10:48:37;6.25;;;4.90;;
58992;SDS011;44782;0.000;0.000;2022-08-16T10:50:54;5.25;;;4.85;;
58992;SDS011;44782;0.000;0.000;2022-08-16T10:53:12;5.18;;;4.78;;
58992;SDS011;44782;0.000;0.000;2022-08-16T10:55:27;4.95;;;4.55;;
58992;SDS011;44782;0.000;0.000;2022-08-16T10:57:44;5.07;;;4.60;;
58992;SDS011;44782;0.000;0.000;2022-08-16T11:00:00;5.20;;;4.80;;
58992;SDS011;44782;0.000;0.000;2022-08-16T11:02:20;4.60;;;4.20;;
58992;SDS011;44782;0.000;0.000;2022-08-16T11:04:36;4.72;;;4.32;;
58992;SDS011;44782;0.000;0.000;2022-08-16T11:06:52;4.60;;;4.10;;
58992;SDS011;44782;0.000;0.000;2022-08-16T11:09:08;4.72;;;4.15;;
58992;SDS011;44782;0.000;0.000;2022-08-16T11:11:24;4.97;;;4.57;;
58992;SDS011;44782;0.000;0.000;2022-08-16T11:13:40;4.63;;;4.22;;
58992;SDS011;44782;0.000;0.000;2022-08-16T11:15:56;4.32;;;3.92;;
58992;SDS011;44782;0.000;0.000;2022-08-16T11:18:13;4.78;;;4.38;;
58992;SDS011;44782;0.000;0.000;2022-08-16T11:20:29;4.35;;;3.95;;
58992;SDS011;44782;0.000;0.000;2022-08-16T11:22:45;4.78;;;4.15;;
58992;SDS011;44782;0.000;0.000;2022-08-16T11:25:02;4.13;;;3.83;;
58992;SDS011;44782;0.000;0.000;2022-08-16T11:27:20;4.88;;;4.47;;
58992;SDS011;44782;0.000;0.000;2022-08-16T11:29:36;4.47;;;4.07;;
58992;SDS011;44782;0.000;0.000;2022-08-16T11:31:52;4.70;;;4.30;;
58992;SDS011;44782;0.000;0.000;2022-08-16T11:34:08;4.63;;;4.22;;
58992;SDS011;44782;0.000;0.000;2022-08-16T11:36:24;5.07;;;4.57;;
58992;SDS011;44782;0.000;0.000;2022-08-16T11:38:39;4.28;;;3.97;;
58992;SDS011;44782;0.000;0.000;2022-08-16T11:40:56;4.28;;;3.97;;
58992;SDS011;44782;0.000;0.000;2022-08-16T11:43:13;4.95;;;4.55;;
58992;SDS011;44782;0.000;0.000;2022-08-16T11:45:30;4.47;;;4.18;;
58992;SDS011;44782;0.000;0.000;2022-08-16T11:47:46;4.18;;;3.88;;
58992;SDS011;44782;0.000;0.000;2022-08-16T11:50:03;4.32;;;3.95;;
58992;SDS011;44782;0.000;0.000;2022-08-16T11:52:22;4.45;;;4.15;;
58992;SDS011;44782;0.000;0.000;2022-08-16T11:54:37;4.55;;;4.25;;
58992;SDS011;44782;0.000;0.000;2022-08-16T11:56:54;4.47;;;4.18;;
58992;SDS011;44782;0.000;0.000;2022-08-16T11:59:10;4.25;;;3.95;;
58992;SDS011;44782;0.000;0.000;2022-08-16T12:01:26;4.15;;;3.85;;
58992;SDS011;44782;0.000;0.000;2022-08-16T12:03:41;4.63;;;4.22;;
58992;SDS011;44782;0.000;0.000;2022-08-16T12:05:58;5.07;;;4.50;;
58992;SDS011;44782;0.000;0.000;2022-08-16T12:08:16;4.40;;;4.00;;
58992;SDS011;44782;0.000;0.000;2022-08-16T12:10:31;4.03;;;3.72;;
58992;SDS011;44782;0.000;0.000;2022-08-16T12:12:49;4.60;;;4.20;;
58992;SDS011;44782;0.000;0.000;2022-08-16T12:15:06;4.55;;;4.22;;
58992;SDS011;44782;0.000;0.000;2022-08-16T12:17:22;4.30;;;4.00;;
58992;SDS011;44782;0.000;0.000;2022-08-16T12:19:38;4.40;;;4.03;;
58992;SDS011;44782;0.000;0.000;2022-08-16T12:21:55;5.05;;;3.92;;
58992;SDS011;44782;0.000;0.000;2022-08-16T12:24:11;4.20;;;3.90;;
58992;SDS011;44782;0.000;0.000;2022-08-16T12:26:26;4.35;;;4.00;;
58992;SDS011;44782;0.000;0.000;2022-08-16T12:28:42;3.95;;;3.65;;
58992;SDS011;44782;0.000;0.000;2022-08-16T12:30:59;4.53;;;4.10;;
58992;SDS011;44782;0.000;0.000;2022-08-16T12:33:15;4.03;;;3.67;;
58992;SDS011;44782;0.000;0.000;2022-08-16T12:35:31;4.25;;;3.95;;
58992;SDS011;44782;0.000;0.000;2022-08-16T12:37:48;3.85;;;3.55;;
58992;SDS011;44782;0.000;0.000;2022-08-16T12:40:05;4.10;;;3.78;;
58992;SDS011;44782;0.000;0.000;2022-08-16T12:42:24;4.60;;;4.20;;
58992;SDS011;44782;0.000;0.000;2022-08-16T12:44:40;4.10;;;3.80;;
58992;SDS011;44782;0.000;0.000;2022-08-16T12:46:56;3.83;;;3.53;;
58992;SDS011;44782;0.000;0.000;2022-08-16T12:49:30;4.20;;;3.90;;
58992;SDS011;44782;0.000;0.000;2022-08-16T12:51:46;4.32;;;3.92;;
58992;SDS011;44782;0.000;0.000;2022-08-16T12:54:03;4.38;;;4.00;;
58992;SDS011;44782;0.000;0.000;2022-08-16T12:56:22;4.28;;;3.97;;
58992;SDS011;44782;0.000;0.000;2022-08-16T12:58:40;3.90;;;3.60;;
58992;SDS011;44782;0.000;0.000;2022-08-16T13:00:56;4.07;;;3.78;;
58992;SDS011;44782;0.000;0.000;2022-08-16T13:03:12;4.40;;;4.05;;
58992;SDS011;44782;0.000;0.000;2022-08-16T13:05:28;4.20;;;3.90;;
58992;SDS011;44782;0.000;0.000;2022-08-16T13:07:45;4.20;;;3.90;;
58992;SDS011;44782;0.000;0.000;2022-08-16T13:10:01;4.10;;;3.80;;
58992;SDS011;44782;0.000;0.000;2022-08-16T13:12:23;4.10;;;3.80;;
58992;SDS011;44782;0.000;0.000;2022-08-16T13:14:42;4.20;;;3.90;;
58992;SDS011;44782;0.000;0.000;2022-08-16T13:17:03;4.07;;;3.78;;
58992;SDS011;44782;0.000;0.000;2022-08-16T13:19:21;3.97;;;3.67;;
58992;SDS011;44782;0.000;0.000;2022-08-16T13:21:36;4.03;;;3.63;;
58992;SDS011;44782;0.000;0.000;2022-08-16T13:23:52;4.18;;;3.78;;
58992;SDS011;44782;0.000;0.000;2022-08-16T13:26:08;4.05;;;3.75;;
58992;SDS011;44782;0.000;0.000;2022-08-16T13:28:23;4.32;;;4.00;;
58992;SDS011;44782;0.000;0.000;2022-08-16T13:30:41;3.40;;;3.20;;
58992;SDS011;44782;0.000;0.000;2022-08-16T13:32:58;4.22;;;3.88;;
58992;SDS011;44782;0.000;0.000;2022-08-16T13:35:14;3.90;;;3.60;;
58992;SDS011;44782;0.000;0.000;2022-08-16T13:37:30;4.10;;;3.80;;
58992;SDS011;44782;0.000;0.000;2022-08-16T13:39:46;4.00;;;3.70;;
58992;SDS011;44782;0.000;0.000;2022-08-16T13:42:02;4.15;;;3.83;;
58992;SDS011;44782;0.000;0.000;2022-08-16T13:44:27;4.15;;;3.85;;
58992;SDS011;44782;0.000;0.000;2022-08-16T13:46:43;4.10;;;3.80;;
58992;SDS011;44782;0.000;0.000;2022-08-16T13:49:01;4.50;;;4.13;;
58992;SDS011;44782;0.000;0.000;2022-08-16T13:51:18;3.85;;;3.58;;
58992;SDS011;44782;0.000;0.000;2022-08-16T13:53:37;4.18;;;3.88;;
58992;SDS011;44782;0.000;0.000;2022-08-16T13:55:53;3.92;;;3.63;;
58992;SDS011;44782;0.000;0.000;2022-08-16T13:58:10;4.30;;;3.90;;
58992;SDS011;44782;0.000;0.000;2022-08-16T14:00:25;4.10;;;3.80;;
58992;SDS011;44782;0.000;0.000;2022-08-16T14:02:41;4.18;;;3.88;;
58992;SDS011;44782;0.000;0.000;2022-08-16T14:04:58;4.20;;;3.90;;